Navarre, OH (44662)

6:18 AM EDT on May 06, 2015 (GMT -0400)
Perry Heights(WD8MBE),Stark County, Ohio | | Change Station
CLOSE
Current Station
Personal Weather Station
Location: Massillon, OH
Elevation: 1100 ft
Nearby Weather Stations

Elev 1100 ft 40.80 °N, 81.46 °W | Updated 9 seconds ago

Fog
Fog
57.7 °F
Feels Like 57.7 °F
N
0.0
Wind Variable Wind from ENE
Gusts 1.0 mph

Today
High -- | Low -- °F
--% Chance of Precip.
Yesterday
High -- | Low -- °F
Precip. -- in
6:18 AM 8:27 PM
Waning Gibbous, 95% visible
Pressure 30.21 in
Visibility 0.2 miles
Clouds
Dew Point 57 °F
Humidity 97%
Rainfall 0.00 in
Snow Depth Not available.
UV Not available.
Pollen 4.50 out of 12
Air Quality Not available.
Flu Activity Regional
METAR KCAK 060951Z 06006KT 1/4SM R23/1600V2400FT FG VV001 15/14 A3022 RMK AO2 SLP230 T01500139

More Conditions Fewer Conditions

Pressure 30.21 in
Visibility 0.2 miles
Clouds
Dew Point 57 °F
Humidity 97%
Rainfall 0.00 in
Snow Depth Not available.
UV Not available.
Pollen 4.50 out of 12
Air Quality Not available.
Flu Activity Regional
METAR KCAK 060951Z 06006KT 1/4SM R23/1600V2400FT FG VV001 15/14 A3022 RMK AO2 SLP230 T01500139

More Conditions Fewer Conditions

10-Day Weather Forecast

Almanac

Astronomy

May. 06, 2015 Rise Set
Actual Time
Civil Twilight
Nautical Twilight
Astronomical Twilight
Moon
Length of Visible Light
Length of Day
Tomorrow will be .
, % of the Moon is Illuminated

Today's Extremes

State Highs State Lows

Community

WunderPhotos

Upload Photos

1,818,859 photos uploaded!

WunderBlogs® & News

Nearby

Air Quality

  Air Quality AQ Index Pollutant
Not available.

Snow Depth

Station Depth Elevation

Earthquake Activity

City Distance Mag. Time & Date
Minimum magnitude displayed is 2.5.

Coastal Water Temperatures

Place Temperature

Stations

Nearby Weather Stations

Station Location Temp. Windchill Dew Point Humidity Wind Precip. Elev Updated Type